Lentini, Italy

9:04 AM CEST on August 30, 2014 (GMT +0200)
Zona Industriale - Catania | Change Station
CLOSE
Current Station
Personal Weather Station
Location: (*Meteosicilia*), Sicily
Elevation: 60 ft
Nearby Weather Stations

Elev 60 ft 37.45 °N, 15.04 °E | Updated 2 seconds ago

Clear
Clear
78.5 °F
Feels Like 81 °F
N
4.0
Wind Variable Wind from NW
Gusts 4.0 mph

Today
High -- | Low -- °F
--% Chance of Precip.
Yesterday
High -- | Low -- °F
Precip. -- in
6:28 AM 7:32 PM
Waxing Crescent, 19% visible
Pressure 30.01 in
Visibility -9999.0 miles
Clouds
Heat Index 81 °F
Dew Point 70 °F
Humidity 74%
Rainfall 0.00 in
Snow Depth Not available.
UV Not available.
Pollen Not available.
Air Quality Not available.
Flu Activity Not available.
METAR LICC 300650Z 23004KT 200V260 CAVOK 25/18 Q1016

More Conditions Fewer Conditions

Pressure 30.01 in
Visibility -9999.0 miles
Clouds
Heat Index 81 °F
Dew Point 70 °F
Humidity 74%
Rainfall 0.00 in
Snow Depth Not available.
UV Not available.
Pollen Not available.
Air Quality Not available.
Flu Activity Not available.
METAR LICC 300650Z 23004KT 200V260 CAVOK 25/18 Q1016

More Conditions Fewer Conditions

10-Day Weather Forecast

Almanac

Astronomy

Aug. 30, 2014 Rise Set
Actual Time 6:28 AM CEST 7:32 PM CEST
Civil Twilight 6:01 AM CEST 7:59 PM CEST
Nautical Twilight 5:30 AM CEST 8:31 PM CEST
Astronomical Twilight 4:56 AM CEST 9:04 PM CEST
Moon 10:53 AM CEST 10:02 PM CEST
Length of Visible Light 13h 57m
Length of Day
13h 03m
Tomorrow will be 2m 17s shorter.
Waxing Crescent, 19% of the Moon is Illuminated
Today
Waxing Crescent
Sep 2
First Quarter
Sep 8
Full
Sep 15
Last Quarter
Sep 24
New

Yesterday's Extremes

Country Highs Country Lows

Community

WunderPhotos

Upload Photos

1,748,462 photos uploaded!

Nearby

Snow Depth

Not available.

Earthquake Activity

City Distance Mag. Time & Date
No recent earthquake activity has been reported nearby.
Minimum magnitude displayed is 2.5.

Coastal Water Temperatures

Place Temperature
No Stations Reporting

Nearby Weather Stations